Latest Weather Observations for Tarcoola

IDS60801

Issued at 6:02 pm CST Wednesday 28 September 2016 (issued every 30 minutes, with the page automatically refreshed every 10 minutes)

About weather observations | Map of weather stations | Latest weather observations for SA | Other Formats
Station Details ID: 016098 Name: TARCOOLA AERO Lat: -30.71 Lon: 134.58 Height: 123.0 m
Data from the previous 72 hours. | See also: Recent months at Tarcoola
Date/Time
CST
Temp
°C
App
Temp
°C
Dew
Point
°C
Rel
Hum
%
Delta-T
°C
Wind Press
QNH
hPa
Press
MSL
hPa
Rain since
9am
mm
Dir  Spd
km/h
Gust
km/h
Spd
kts
Gust
kts
28/06:00pm 13.5 2.6 1.5 44 5.2 WSW 48 63 26 34 1003.8 1003.5 0.0
28/05:30pm 14.5 3.9 -1.6 33 6.6 WSW 44 63 24 34 1003.0 1002.8 0.0
28/05:00pm 16.7 3.0 -3.9 24 8.2 W 59 80 32 43 1001.9 1001.7 0.0
28/04:30pm 18.6 5.1 -5.4 19 9.5 W 57 80 31 43 1001.1 1000.9 0.0
28/04:00pm 18.4 4.9 -2.0 25 8.6 W 59 82 32 44 1000.6 1000.4 0.0
28/03:57pm 18.4 4.5 -2.5 24 8.7 W 61 82 33 44 1000.3 1000.1 0.0
28/03:30pm 19.7 6.4 -5.3 18 10.0 WNW 56 76 30 41 999.7 999.5 0.0
28/03:00pm 20.7 7.3 -4.4 18 10.3 WNW 57 89 31 48 999.5 999.3 0.0
28/02:32pm 21.8 8.9 -2.1 20 10.3 W 56 74 30 40 999.5 999.3 0.0
28/02:30pm 21.7 8.6 -2.2 20 10.4 WNW 57 74 31 40 999.4 999.1 0.0
28/02:00pm 22.7 9.8 -2.1 19 10.8 WNW 56 85 30 46 998.9 998.6 0.0
28/01:30pm 23.4 12.6 1.7 24 10.3 WNW 48 72 26 39 998.2 997.9 0.0
28/01:00pm 24.3 13.2 2.5 24 10.5 WNW 50 74 27 40 998.2 997.9 0.0
28/12:41pm 24.4 14.2 3.1 25 10.4 W 46 65 25 35 998.3 998.0 0.0
28/12:30pm 24.4 13.8 3.1 25 10.5 W 48 65 26 35 998.4 998.1 0.0
28/12:00pm 24.9 12.9 1.7 22 11.1 W 54 72 29 39 998.3 998.0 0.0
28/11:32am 28.3 17.8 3.9 21 12.4 WNW 48 74 26 40 997.4 997.1 0.0
28/11:30am 29.3 19.0 4.7 21 12.8 WNW 48 65 26 35 997.4 997.1 0.0
28/11:00am 29.6 19.3 2.8 18 13.5 NW 46 69 25 37 996.8 996.5 0.0
28/10:38am 29.6 20.0 3.6 19 13.2 NW 43 61 23 33 997.1 996.8 0.0
28/10:30am 29.4 19.4 4.1 20 13.1 NNW 46 61 25 33 997.5 997.2 0.0
28/10:07am 28.5 19.9 6.6 25 11.7 NNW 41 61 22 33 998.0 997.7 0.0
28/10:00am 28.4 20.3 7.1 26 11.4 NNW 39 52 21 28 998.1 997.8 0.0
28/09:30am 26.5 18.3 9.8 35 9.4 NNW 43 57 23 31 998.8 998.5 0.0
28/09:00am 25.2 19.2 12.1 44 7.6 N 35 46 19 25 999.2 998.9 0.0
28/08:35am 23.1 16.6 11.8 49 6.4 N 37 56 20 30 999.5 999.3 0.0
28/08:30am 23.0 16.9 11.7 49 6.4 N 35 48 19 26 999.5 999.3 0.0
28/08:02am 21.8 16.5 11.2 51 5.9 N 30 50 16 27 999.7 999.5 0.0
28/08:00am 22.0 16.7 11.4 51 5.9 N 30 43 16 23 999.8 999.6 0.0
28/07:30am 20.0 15.2 8.7 48 6.0 NNE 24 37 13 20 1000.3 1000.1 0.0
28/07:00am 17.9 13.3 5.5 44 6.1 NNE 19 26 10 14 1000.5 1000.3 0.0
28/06:30am 17.6 12.1 3.9 40 6.5 NE 22 32 12 17 1000.8 1000.6 0.0
28/06:00am 17.2 11.2 3.5 40 6.4 NE 24 32 13 17 1001.0 1000.8 0.0
28/05:30am 16.6 11.2 2.6 39 6.4 NE 20 28 11 15 1001.8 1001.6 0.0
28/05:00am 15.6 10.2 1.4 38 6.3 ENE 19 24 10 13 1002.4 1002.2 0.0
28/04:30am 15.5 9.9 -0.3 34 6.7 NE 19 26 10 14 1003.2 1003.0 0.0
28/04:00am 14.9 9.1 -1.6 32 6.8 ENE 19 26 10 14 1003.7 1003.4 0.0
28/03:30am 14.2 8.7 -2.2 32 6.6 ENE 17 20 9 11 1004.6 1004.3 0.0
28/03:00am 14.3 9.1 -2.6 31 6.8 ENE 15 17 8 9 1005.8 1005.5 0.0
28/02:30am 14.7 8.6 -2.7 30 7.0 ENE 20 24 11 13 1006.4 1006.1 0.0
28/02:00am 15.4 8.8 -3.0 28 7.4 ENE 22 28 12 15 1007.1 1006.9 0.0
28/01:30am 15.6 9.6 -2.8 28 7.4 ENE 19 24 10 13 1007.8 1007.6 0.0
28/01:00am 15.8 9.7 -2.6 28 7.5 ENE 20 28 11 15 1008.2 1008.0 0.0
28/12:30am 15.1 9.6 -2.3 30 7.1 E 17 24 9 13 1008.9 1008.7 0.0
28/12:00am 15.2 9.6 -2.7 29 7.2 ENE 17 19 9 10 1010.1 1009.9 0.0
 
Date/Time
CST
Temp
°C
App
Temp
°C
Dew
Point
°C
Rel
Hum
%
Delta-T
°C
Wind Press
QNH
hPa
Press
MSL
hPa
Rain since
9am
mm
Dir  Spd
km/h
Gust
km/h
Spd
kts
Gust
kts
27/11:30pm 15.1 10.0 -2.3 30 7.1 ENE 15 20 8 11 1010.7 1010.5 0.0
27/11:00pm 12.5 8.2 -1.8 37 5.7 ENE 11 13 6 7 1011.1 1010.9 0.0
27/10:30pm 12.1 8.2 -1.4 39 5.4 ENE 9 9 5 5 1011.5 1011.3 0.0
27/10:00pm 12.6 8.7 -1.3 38 5.6 ENE 9 11 5 6 1011.8 1011.6 0.0
27/09:30pm 13.6 9.3 -1.9 34 6.2 E 11 13 6 7 1012.0 1011.7 0.0
27/09:00pm 13.8 9.5 -1.8 34 6.3 E 11 13 6 7 1012.2 1011.9 0.0
27/08:30pm 14.5 10.2 -1.6 33 6.6 E 11 11 6 6 1012.3 1012.0 0.0
27/08:00pm 16.0 11.7 -1.5 30 7.3 E 11 13 6 7 1012.3 1012.0 0.0
27/07:30pm 16.8 12.9 -1.8 28 7.7 ENE 9 15 5 8 1012.4 1012.1 0.0
27/07:00pm 19.0 15.5 -1.4 25 8.7 NE 7 7 4 4 1012.5 1012.2 0.0
27/06:30pm 20.4 17.0 -2.0 22 9.6 NE 6 7 3 4 1012.3 1012.0 0.0
27/06:00pm 22.1 18.9 -3.3 18 10.8 SE 4 7 2 4 1012.4 1012.1 0.0
27/05:30pm 22.7 19.0 -2.8 18 11.0 ENE 7 11 4 6 1012.5 1012.2 0.0
27/05:00pm 23.1 19.4 -2.5 18 11.1 ENE 7 11 4 6 1012.6 1012.3 0.0
27/04:30pm 23.3 20.2 -2.3 18 11.2 E 4 11 2 6 1012.9 1012.6 0.0
27/04:00pm 23.5 19.1 -2.2 18 11.3 NW 11 15 6 8 1013.2 1012.9 0.0
27/03:30pm 22.8 18.5 -2.0 19 10.9 SE 11 17 6 9 1013.6 1013.4 0.0
27/03:00pm 22.8 19.5 -1.3 20 10.7 WNW 6 11 3 6 1013.9 1013.7 0.0
27/02:30pm 22.6 19.7 -0.8 21 10.5 E 4 13 2 7 1014.3 1014.1 0.0
27/02:00pm 22.5 18.6 -1.6 20 10.6 ESE 9 20 5 11 1014.8 1014.6 0.0
27/01:30pm 22.0 18.8 -0.7 22 10.1 ESE 6 15 3 8 1015.3 1015.1 0.0
27/01:00pm 21.6 17.8 -0.4 23 9.8 SSE 9 17 5 9 1015.9 1015.7 0.0
27/12:30pm 20.4 16.6 -0.8 24 9.3 SE 9 20 5 11 1016.6 1016.4 0.0
27/12:00pm 20.0 15.0 -1.2 24 9.2 S 15 24 8 13 1017.2 1017.0 0.0
27/11:30am 18.7 15.1 -2.3 24 8.8 ESE 7 19 4 10 1017.8 1017.6 0.0
27/11:00am 18.5 13.9 -1.3 26 8.5 SW 13 17 7 9 1018.2 1018.0 0.0
27/10:30am 17.4 13.1 -1.8 27 8.0 SW 11 15 6 8 1018.4 1018.2 0.0
27/10:00am 16.7 12.6 -0.5 31 7.3 WSW 11 17 6 9 1018.6 1018.4 0.0
27/09:30am 15.1 12.4 0.5 37 6.3 SSW 4 9 2 5 1018.8 1018.6 0.0
27/09:00am 14.9 12.1 2.1 42 5.7 ENE 6 9 3 5 1018.8 1018.6 0.0
27/08:30am 13.3 10.2 3.4 51 4.4 NE 9 13 5 7 1018.8 1018.6 0.0
27/08:00am 11.4 8.2 2.9 56 3.7 NE 9 11 5 6 1018.7 1018.5 0.0
27/07:30am 9.2 6.6 3.0 65 2.7 NE 6 9 3 5 1018.6 1018.4 0.0
27/07:00am 5.8 2.8 1.7 75 1.7 NE 7 7 4 4 1018.5 1018.3 0.0
27/06:30am 3.4 1.4 -0.1 78 1.3 CALM 0 0 0 0 1018.4 1018.2 0.0
27/06:00am 3.0 0.9 -0.5 78 1.3 CALM 0 6 0 3 1018.2 1018.0 0.0
27/05:30am 3.5 0.4 0.0 78 1.3 ENE 6 7 3 4 1017.7 1017.5 0.0
27/05:00am 3.7 1.7 0.1 77 1.4 CALM 0 0 0 0 1017.4 1017.2 0.0
27/04:30am 4.2 1.9 0.4 76 1.5 E 2 7 1 4 1017.3 1017.1 0.0
27/04:00am 4.8 2.9 0.6 74 1.6 CALM 0 0 0 0 1017.4 1017.2 0.0
27/03:30am 5.3 2.7 0.9 73 1.7 NE 4 9 2 5 1017.3 1017.1 0.0
27/03:00am 5.8 2.9 1.3 73 1.8 N 6 7 3 4 1017.5 1017.3 0.0
27/02:30am 7.0 5.3 1.9 70 2.1 CALM 0 0 0 0 1017.4 1017.2 0.0
27/02:00am 7.8 5.0 2.3 68 2.3 SSW 6 7 3 4 1017.7 1017.5 0.0
27/01:30am 8.7 5.4 2.5 65 2.6 SSW 9 11 5 6 1017.9 1017.7 0.0
27/01:00am 9.7 6.1 2.8 62 3.0 SSW 11 15 6 8 1018.0 1017.8 0.0
27/12:30am 10.5 6.5 2.8 59 3.3 SSW 13 20 7 11 1018.1 1017.9 0.0
27/12:00am 10.9 6.2 3.2 59 3.4 SSW 17 26 9 14 1018.2 1018.0 0.0
 
Date/Time
CST
Temp
°C
App
Temp
°C
Dew
Point
°C
Rel
Hum
%
Delta-T
°C
Wind Press
QNH
hPa
Press
MSL
hPa
Rain since
9am
mm
Dir  Spd
km/h
Gust
km/h
Spd
kts
Gust
kts
26/11:30pm 11.4 6.7 3.4 58 3.5 S 17 20 9 11 1018.1 1017.9 0.0
26/11:00pm 11.9 6.9 3.7 57 3.7 SSW 19 28 10 15 1018.1 1017.9 0.0
26/10:30pm 12.6 7.1 3.8 55 4.0 SSW 22 32 12 17 1018.0 1017.8 0.0
26/10:00pm 13.2 8.0 3.3 51 4.4 SSW 20 28 11 15 1017.9 1017.7 0.0
26/09:30pm 14.2 7.3 2.8 46 5.1 SSW 28 39 15 21 1017.6 1017.4 0.0
26/09:00pm 15.2 9.5 2.7 43 5.6 SSW 22 33 12 18 1017.2 1017.0 0.0
26/08:30pm 16.2 10.2 3.6 43 5.8 SSW 24 35 13 19 1016.8 1016.6 0.0
26/08:00pm 17.1 12.1 3.8 41 6.2 SSW 19 28 10 15 1016.4 1016.2 0.0
26/07:30pm 18.1 12.6 3.9 39 6.7 SSW 22 32 12 17 1015.8 1015.6 0.0
26/07:00pm 19.1 14.0 4.1 37 7.2 SSW 20 28 11 15 1015.1 1014.9 0.0
26/06:30pm 20.5 14.9 3.3 32 8.2 SW 22 30 12 16 1014.8 1014.6 0.0
26/06:00pm 21.8 16.8 3.5 30 8.8 SSW 19 28 10 15 1014.4 1014.2 0.0
26/05:30pm 22.8 17.3 3.9 29 9.3 SW 22 30 12 16 1013.9 1013.7 0.0
26/05:00pm 23.4 18.3 3.9 28 9.6 SW 20 28 11 15 1013.6 1013.4 0.0
26/04:30pm 23.8 18.6 3.7 27 9.9 SW 20 39 11 21 1013.5 1013.3 0.0
26/04:00pm 25.0 19.4 3.6 25 10.6 SW 22 33 12 18 1013.1 1012.8 0.0
26/03:30pm 24.9 19.1 2.4 23 10.9 SW 22 30 12 16 1012.9 1012.6 0.0
26/03:00pm 25.0 19.2 2.4 23 10.9 WSW 22 35 12 19 1012.9 1012.6 0.0
26/02:30pm 25.3 19.6 2.7 23 11.0 WSW 22 35 12 19 1013.0 1012.7 0.0
26/02:00pm 25.9 19.9 1.2 20 11.8 WSW 22 33 12 18 1013.1 1012.8 0.0
26/01:30pm 25.6 20.0 1.0 20 11.6 W 20 32 11 17 1013.3 1013.0 0.0
26/01:00pm 25.4 18.3 1.5 21 11.4 W 28 43 15 23 1013.5 1013.3 0.0
26/12:30pm 25.1 18.1 1.9 22 11.1 WNW 28 39 15 21 1013.9 1013.7 0.0
26/12:00pm 24.3 17.8 2.5 24 10.5 WNW 26 35 14 19 1014.4 1014.2 0.0
26/11:30am 23.1 16.1 2.0 25 10.0 NW 28 39 15 21 1014.9 1014.7 0.0
26/11:17am 23.1 16.1 2.0 25 10.0 WNW 28 43 15 23 1015.1 1014.9 0.0
26/11:00am 22.3 16.7 1.3 25 9.8 WNW 20 30 11 16 1015.3 1015.1 0.0
26/10:30am 21.4 15.0 1.1 26 9.3 NW 24 33 13 18 1015.6 1015.4 0.0
26/10:00am 20.4 14.7 0.8 27 8.9 W 20 32 11 17 1015.9 1015.7 0.0
26/09:30am 18.9 12.7 0.0 28 8.3 W 22 33 12 18 1016.2 1016.0 0.0
26/09:00am 17.7 11.9 -0.1 30 7.7 WSW 20 30 11 16 1016.2 1016.0 0.0
26/08:30am 15.8 10.0 -0.4 33 6.9 SW 20 30 11 16 1016.0 1015.8 0.0
26/08:00am 16.4 9.9 0.1 33 7.0 N 24 33 13 18 1014.5 1014.3 0.0
26/07:30am 14.3 9.1 -0.2 37 6.1 N 17 20 9 11 1014.3 1014.1 0.0
26/07:00am 12.5 7.3 0.3 43 5.1 N 17 22 9 12 1014.0 1013.8 0.0
26/06:30am 11.0 6.2 0.1 47 4.5 N 15 19 8 10 1013.7 1013.5 0.0
26/06:00am 11.6 6.0 0.1 45 4.7 N 19 20 10 11 1013.4 1013.2 0.0
26/05:30am 12.1 6.3 -0.1 43 5.0 N 20 26 11 14 1013.0 1012.7 0.0
26/05:00am 11.3 5.8 0.7 48 4.4 N 19 24 10 13 1013.0 1012.7 0.0
26/04:30am 10.5 5.4 0.8 51 4.0 N 17 20 9 11 1012.8 1012.5 0.0
26/04:00am 8.1 3.8 1.3 62 2.8 NNE 13 15 7 8 1013.0 1012.7 0.0
26/03:30am 8.2 4.3 1.1 61 2.9 NE 11 13 6 7 1013.0 1012.7 0.0
26/03:00am 8.7 4.8 0.9 58 3.2 NE 11 13 6 7 1013.2 1012.9 0.0
26/02:30am 8.9 5.3 0.9 57 3.3 NE 9 11 5 6 1013.6 1013.4 0.0
26/02:00am 8.4 4.8 0.9 59 3.0 NE 9 11 5 6 1013.9 1013.7 0.0
26/01:30am 8.4 4.5 1.1 60 3.0 ENE 11 11 6 6 1014.1 1013.9 0.0
26/01:00am 8.9 4.6 1.1 58 3.2 ENE 13 13 7 7 1014.5 1014.3 0.0
26/12:30am 8.7 4.7 0.7 57 3.2 E 11 11 6 6 1014.8 1014.6 0.0
26/12:00am 9.3 5.5 1.5 58 3.2 NE 11 13 6 7 1015.4 1015.2 0.0
 
Date/Time
CST
Temp
°C
App
Temp
°C
Dew
Point
°C
Rel
Hum
%
Delta-T
°C
Wind Press
QNH
hPa
Press
MSL
hPa
Rain since
9am
mm
Dir  Spd
km/h
Gust
km/h
Spd
kts
Gust
kts
25/11:30pm 9.3 5.0 1.0 56 3.4 NE 13 13 7 7 1016.0 1015.8 0.0
25/11:00pm 10.1 7.4 0.2 50 4.0 ESE 4 7 2 4 1016.2 1016.0 0.0
25/10:30pm 9.9 8.0 0.8 53 3.7 CALM 0 0 0 0 1016.4 1016.2 0.0
25/10:00pm 11.0 9.2 1.0 50 4.2 CALM 0 0 0 0 1016.5 1016.3 0.0
25/09:30pm 10.8 8.9 0.5 49 4.2 CALM 0 0 0 0 1016.5 1016.3 0.0
25/09:00pm 11.0 7.9 0.1 47 4.5 NE 6 9 3 5 1016.3 1016.1 0.0
25/08:30pm 12.0 8.8 0.5 45 4.8 NE 7 7 4 4 1016.0 1015.8 0.0
25/08:00pm 13.3 11.2 -1.1 37 5.9 CALM 0 0 0 0 1015.7 1015.5 0.0
25/07:30pm 14.5 11.0 -1.2 34 6.5 NNW 7 9 4 5 1015.3 1015.1 0.0
25/07:00pm 15.7 11.8 -1.8 30 7.2 NW 9 9 5 5 1015.0 1014.8 0.0
25/06:30pm 17.9 14.3 -2.4 25 8.4 NW 7 9 4 5 1014.5 1014.3 0.0

Other Formats:

Comma delimited format used in spreadsheet applications
http://www.bom.gov.au/fwo/IDS60801/IDS60801.94655.axf

JavaScript Object Notation format (JSON) in row-major order
http://www.bom.gov.au/fwo/IDS60801/IDS60801.94655.json